Coaldale, Nevada
Current Conditions -  °F | °C
As of 11:56 PM on Friday 28 Nov 2014 (Local Time) from KTPH Reporting Station
Clear Clear  
Wind Chill: 19°   Ceiling: Unl
Heat Index: 28°   Visibility: 10mi
Dew Point:   Wind: 9mph
Humidity: 43%   Direction: 10°N
Pressure: 29.91"   Gusts: NA
Location:  38.4847°N, 116.233°W
Report Text: KTPH 290756Z AUTO 01008KT 10SM CLR M02/M13 A2991 RMK AO2 SLP117 T10221133 401561022
Loading
Personal Weather Stations






























Interactive Weather Map New forecast layout! Learn more

10-Day Weather Forecast

Advertisements
Track Severe Weather on mobile